createdAt,value
2023-07-23T00:00:23.873Z,4.20
2023-07-23T00:03:30.205Z,4.45
2023-07-23T00:06:35.767Z,4.22
2023-07-23T00:09:41.769Z,4.18
2023-07-23T00:12:47.852Z,3.95
2023-07-23T00:15:53.752Z,3.65
2023-07-23T00:18:59.605Z,4.57
2023-07-23T00:22:05.758Z,3.67
2023-07-23T00:25:11.706Z,4.18
2023-07-23T00:28:17.905Z,4.18
2023-07-23T00:31:23.983Z,3.80
2023-07-23T00:34:29.732Z,4.10
2023-07-23T00:37:35.368Z,3.95
2023-07-23T00:40:41.343Z,3.85
2023-07-23T00:43:47.604Z,4.95
2023-07-23T00:46:55.680Z,4.38
2023-07-23T00:50:02.086Z,4.80
2023-07-23T00:53:08.995Z,5.28
2023-07-23T00:56:15.581Z,5.03
2023-07-23T00:59:21.527Z,5.45
2023-07-23T01:02:27.789Z,6.32
2023-07-23T01:05:35.092Z,5.45
2023-07-23T01:08:44.528Z,5.63
2023-07-23T01:11:52.390Z,5.30
2023-07-23T01:14:59.571Z,6.32
2023-07-23T01:18:07.086Z,5.57
2023-07-23T01:21:13.621Z,6.45
2023-07-23T01:24:19.608Z,4.70
2023-07-23T01:27:25.846Z,4.75
2023-07-23T01:30:32.215Z,5.47
2023-07-23T01:33:37.606Z,4.50
2023-07-23T01:36:45.190Z,5.35
2023-07-23T01:39:51.815Z,4.85
2023-07-23T01:42:57.916Z,4.95
2023-07-23T01:46:03.380Z,5.28
2023-07-23T01:49:09.118Z,5.38
2023-07-23T01:52:14.984Z,5.43
2023-07-23T01:55:21.468Z,4.57
2023-07-23T01:58:27.315Z,4.45
2023-07-23T02:01:34.046Z,4.88
2023-07-23T02:04:40.483Z,4.78
2023-07-23T02:07:47.248Z,4.70
2023-07-23T02:10:59.719Z,4.00
2023-07-23T02:14:05.700Z,4.75
2023-07-23T02:17:11.908Z,4.10
2023-07-23T02:20:22.589Z,4.13
2023-07-23T02:23:28.577Z,3.72
2023-07-23T02:26:34.946Z,3.78
2023-07-23T02:29:40.880Z,4.03
2023-07-23T02:32:46.856Z,3.40
2023-07-23T02:35:52.804Z,3.05
2023-07-23T02:38:58.588Z,4.03
2023-07-23T02:42:05.017Z,3.40
2023-07-23T02:45:11.122Z,3.45
2023-07-23T02:48:17.725Z,3.60
2023-07-23T02:51:23.718Z,2.90
2023-07-23T02:54:29.940Z,3.72
2023-07-23T02:57:35.412Z,3.10
2023-07-23T03:00:41.808Z,3.75
2023-07-23T03:03:49.194Z,3.53
2023-07-23T03:06:56.144Z,2.75
2023-07-23T03:10:02.880Z,3.75
2023-07-23T03:13:09.005Z,3.40
2023-07-23T03:16:15.786Z,3.70
2023-07-23T03:19:21.270Z,2.50
2023-07-23T03:22:26.940Z,2.78
2023-07-23T03:25:33.255Z,3.40
2023-07-23T03:28:39.525Z,3.10
2023-07-23T03:31:45.694Z,3.10
2023-07-23T03:34:51.445Z,3.15
2023-07-23T03:37:58.089Z,3.05
2023-07-23T03:41:04.303Z,3.38
2023-07-23T03:44:10.061Z,3.17
2023-07-23T03:47:19.079Z,3.20
2023-07-23T03:50:26.142Z,3.30
2023-07-23T03:53:32.169Z,3.15
2023-07-23T03:56:38.001Z,3.03
2023-07-23T03:59:47.042Z,3.30
2023-07-23T04:02:53.144Z,3.00
2023-07-23T04:05:58.893Z,3.17
2023-07-23T04:09:05.055Z,3.22
2023-07-23T04:12:14.509Z,3.35
2023-07-23T04:15:20.644Z,3.80
2023-07-23T04:18:26.049Z,3.40
2023-07-23T04:21:31.837Z,2.78
2023-07-23T04:24:38.043Z,2.83
2023-07-23T04:27:44.580Z,3.08
2023-07-23T04:30:51.419Z,3.63
2023-07-23T04:33:58.157Z,3.05
2023-07-23T04:37:03.838Z,3.35
2023-07-23T04:40:11.189Z,3.47
2023-07-23T04:43:17.475Z,4.00
2023-07-23T04:46:24.331Z,3.95
2023-07-23T04:49:30.067Z,4.65
2023-07-23T04:52:36.232Z,3.90
2023-07-23T04:55:42.231Z,3.88
2023-07-23T04:58:48.218Z,4.05
2023-07-23T05:01:53.821Z,3.60
2023-07-23T05:05:00.022Z,3.00
2023-07-23T05:08:05.933Z,2.78
2023-07-23T05:11:11.888Z,3.42
2023-07-23T05:14:18.000Z,2.95
2023-07-23T05:17:24.039Z,3.28
2023-07-23T05:20:29.661Z,3.28
2023-07-23T05:23:35.627Z,3.25
2023-07-23T05:26:41.339Z,2.88
2023-07-23T05:29:47.145Z,3.17
2023-07-23T05:32:53.001Z,2.95
2023-07-23T05:35:59.268Z,3.30
2023-07-23T05:39:05.042Z,2.67
2023-07-23T05:42:10.759Z,3.28
2023-07-23T05:45:16.194Z,3.40
2023-07-23T05:48:22.969Z,2.83
2023-07-23T05:51:29.117Z,3.10
2023-07-23T05:54:35.258Z,3.40
2023-07-23T05:57:41.606Z,2.90
2023-07-23T06:00:47.961Z,3.00
2023-07-23T06:03:54.521Z,3.03
2023-07-23T06:07:00.189Z,3.08
2023-07-23T06:10:06.289Z,3.10
2023-07-23T06:13:12.422Z,3.00
2023-07-23T06:16:18.211Z,2.60
2023-07-23T06:19:24.563Z,3.08
2023-07-23T06:22:30.624Z,3.00
2023-07-23T06:25:36.365Z,3.22
2023-07-23T06:28:41.929Z,3.17
2023-07-23T06:31:47.986Z,2.45
2023-07-23T06:34:53.731Z,2.45
2023-07-23T06:37:58.816Z,2.50
2023-07-23T06:41:06.350Z,2.80
2023-07-23T06:44:12.490Z,2.65
2023-07-23T06:47:19.705Z,2.33
2023-07-23T06:50:26.227Z,3.10
2023-07-23T06:53:32.402Z,3.38
2023-07-23T06:56:38.542Z,2.38
2023-07-23T06:59:44.862Z,2.42
2023-07-23T07:02:50.916Z,3.03
2023-07-23T07:05:56.990Z,2.53
2023-07-23T07:09:02.795Z,2.55
2023-07-23T07:12:09.415Z,2.60
2023-07-23T07:15:15.712Z,2.42
2023-07-23T07:18:21.966Z,2.50
2023-07-23T07:21:28.649Z,2.67
2023-07-23T11:41:02.419Z,3.88
2023-07-23T11:44:08.618Z,5.25
2023-07-23T11:47:14.100Z,3.88
2023-07-23T11:50:21.538Z,3.40
2023-07-23T11:53:38.540Z,3.47
2023-07-23T11:56:49.409Z,3.75
2023-07-23T11:59:54.953Z,4.25
2023-07-23T12:03:01.199Z,3.95
2023-07-23T12:06:07.306Z,4.32
2023-07-23T12:09:13.473Z,4.60
2023-07-23T12:12:22.944Z,4.90
2023-07-23T12:15:28.698Z,4.65
2023-07-23T12:18:48.754Z,4.15
2023-07-23T12:21:59.376Z,4.20
2023-07-23T12:25:05.264Z,3.77
2023-07-23T12:28:10.988Z,4.22
2023-07-23T12:31:16.729Z,4.25
2023-07-23T12:34:23.280Z,4.47
2023-07-23T12:37:29.439Z,4.03
2023-07-23T12:40:35.143Z,4.03
2023-07-23T12:43:41.451Z,3.65
2023-07-23T12:46:47.309Z,3.75
2023-07-23T12:49:52.952Z,3.85
2023-07-23T12:52:58.891Z,4.10
2023-07-23T12:56:04.626Z,3.97
2023-07-23T12:59:10.126Z,4.40
2023-07-23T13:02:15.935Z,3.75
2023-07-23T13:05:23.800Z,4.20
2023-07-23T13:08:29.670Z,4.32
2023-07-23T13:11:35.581Z,4.30
2023-07-23T13:14:41.462Z,4.00
2023-07-23T13:17:49.282Z,4.13
2023-07-23T13:20:55.079Z,4.00
2023-07-23T13:24:00.299Z,5.20
2023-07-23T13:27:06.249Z,4.78
2023-07-23T13:30:11.632Z,4.30
2023-07-23T13:33:19.043Z,4.85
2023-07-23T13:36:24.308Z,4.72
2023-07-23T13:39:30.184Z,4.32
2023-07-23T13:42:35.794Z,4.28
2023-07-23T13:45:41.758Z,4.07
2023-07-23T13:48:47.031Z,4.25
2023-07-23T13:51:52.952Z,4.72
2023-07-23T13:54:59.039Z,4.03
2023-07-23T13:58:04.290Z,4.65
2023-07-23T14:01:09.720Z,3.83
2023-07-23T14:04:14.998Z,4.32
2023-07-23T14:07:20.372Z,5.20
2023-07-23T14:10:26.011Z,4.45
2023-07-23T14:13:31.729Z,4.88
2023-07-23T14:16:37.336Z,4.45
2023-07-23T14:19:42.635Z,3.72
2023-07-23T14:22:47.854Z,4.35
2023-07-23T14:25:53.333Z,4.10
2023-07-23T14:28:59.085Z,4.03
2023-07-23T14:32:06.599Z,5.47
2023-07-23T14:35:12.101Z,3.95
2023-07-23T14:38:17.653Z,3.88
2023-07-23T14:41:22.829Z,4.72
2023-07-23T14:44:28.352Z,4.00
2023-07-23T14:47:33.761Z,4.78
2023-07-23T14:50:39.683Z,4.28
2023-07-23T14:53:45.445Z,4.88
2023-07-23T14:56:57.388Z,5.30
2023-07-23T15:00:06.554Z,3.67
2023-07-23T15:03:17.883Z,4.65
2023-07-23T15:06:23.486Z,4.10
2023-07-23T15:09:28.500Z,4.40
2023-07-23T15:12:34.342Z,4.63
2023-07-23T15:15:39.819Z,4.95
2023-07-23T15:18:45.717Z,4.68
2023-07-23T15:21:51.858Z,4.95
2023-07-23T15:24:57.617Z,5.30
2023-07-23T15:28:07.447Z,4.93
2023-07-23T15:31:13.340Z,4.88
2023-07-23T15:34:20.714Z,4.80
2023-07-23T15:37:26.555Z,5.07
2023-07-23T15:40:32.166Z,5.55
2023-07-23T15:43:37.435Z,4.95
2023-07-23T15:46:42.883Z,5.45
2023-07-23T15:49:48.426Z,5.25
2023-07-23T15:52:54.152Z,5.20
2023-07-23T15:55:59.879Z,5.07
2023-07-23T15:59:05.900Z,6.10
2023-07-23T16:02:11.039Z,4.85
2023-07-23T16:05:16.816Z,5.03
2023-07-23T16:08:22.255Z,6.05
2023-07-23T16:11:28.324Z,5.05
2023-07-23T16:14:34.220Z,5.63
2023-07-23T16:17:41.381Z,4.28
2023-07-23T16:20:47.468Z,4.53
2023-07-23T16:23:52.737Z,5.88
2023-07-23T16:26:58.107Z,5.50
2023-07-23T16:30:03.720Z,4.78
2023-07-23T16:33:10.399Z,5.82
2023-07-23T16:36:17.224Z,5.63
2023-07-23T16:39:26.611Z,5.55
2023-07-23T16:42:32.392Z,5.60
2023-07-23T16:45:38.292Z,6.40
2023-07-23T16:48:43.895Z,5.88
2023-07-23T16:51:49.917Z,6.18
2023-07-23T16:54:56.123Z,7.50
2023-07-23T16:58:01.562Z,5.80
2023-07-23T17:01:07.283Z,5.60
2023-07-23T17:04:12.535Z,5.90
2023-07-23T17:07:18.030Z,6.03
2023-07-23T17:10:24.313Z,5.25
2023-07-23T17:13:30.657Z,5.45
2023-07-23T17:16:37.666Z,5.40
2023-07-23T17:19:44.647Z,6.47
2023-07-23T17:22:50.571Z,4.75
2023-07-23T17:25:55.922Z,5.85
2023-07-23T17:29:01.862Z,6.47
2023-07-23T17:32:08.115Z,6.70
2023-07-23T17:35:13.899Z,6.30
2023-07-23T17:38:19.616Z,5.63
2023-07-23T17:41:25.540Z,6.05
2023-07-23T17:44:31.841Z,6.22
2023-07-23T17:47:38.005Z,6.38
2023-07-23T17:50:44.082Z,5.80
2023-07-23T17:53:49.652Z,5.20
2023-07-23T17:56:55.003Z,6.40
2023-07-23T18:00:00.137Z,5.82
2023-07-23T18:03:05.652Z,5.72
2023-07-23T18:06:11.350Z,5.93
2023-07-23T18:09:17.725Z,5.45
2023-07-23T18:12:23.423Z,6.82
2023-07-23T18:15:29.344Z,6.00
2023-07-23T18:18:35.255Z,5.40
2023-07-23T18:21:41.071Z,6.35
2023-07-23T18:24:47.101Z,6.43
2023-07-23T18:27:53.104Z,5.78
2023-07-23T18:31:00.028Z,5.60
2023-07-23T18:34:07.095Z,6.28
2023-07-23T18:37:13.091Z,6.78
2023-07-23T18:40:18.579Z,8.18
2023-07-23T18:43:24.516Z,5.63
2023-07-23T18:46:30.898Z,6.68
2023-07-23T18:49:37.147Z,6.90
2023-07-23T18:52:42.697Z,6.55
2023-07-23T18:55:48.329Z,6.38
2023-07-23T18:58:55.500Z,7.00
2023-07-23T19:02:00.515Z,6.95
2023-07-23T19:05:06.457Z,6.10
2023-07-23T19:08:12.527Z,6.25
2023-07-23T19:11:18.661Z,6.93
2023-07-23T19:14:24.948Z,6.07
2023-07-23T19:17:31.264Z,6.55
2023-07-23T19:20:37.196Z,8.27
2023-07-23T19:23:43.834Z,5.47
2023-07-23T19:26:49.849Z,7.80
2023-07-23T19:29:54.994Z,6.45
2023-07-23T19:33:00.631Z,7.03
2023-07-23T19:36:06.043Z,7.43
2023-07-23T19:39:11.999Z,6.88
2023-07-23T19:42:18.532Z,6.10
2023-07-23T19:45:24.515Z,7.32
2023-07-23T19:48:30.562Z,6.88
2023-07-23T19:51:36.200Z,7.18
2023-07-23T19:54:42.434Z,7.65
2023-07-23T19:57:48.411Z,7.10
2023-07-23T20:00:54.289Z,7.47
2023-07-23T20:03:59.931Z,7.38
2023-07-23T20:07:07.068Z,7.20
2023-07-23T20:10:15.057Z,7.75
2023-07-23T20:13:20.970Z,7.38
2023-07-23T20:16:26.768Z,7.72
2023-07-23T20:19:32.461Z,8.40
2023-07-23T20:22:39.388Z,7.53
2023-07-23T20:25:55.183Z,7.63
2023-07-23T20:29:00.742Z,8.77
2023-07-23T20:32:07.182Z,8.60
2023-07-23T20:35:13.769Z,7.90
2023-07-23T20:38:19.465Z,7.65
2023-07-23T20:41:25.566Z,7.35
2023-07-23T20:44:31.409Z,9.70
2023-07-23T20:47:37.486Z,9.45
2023-07-23T20:50:43.467Z,10.48
2023-07-23T20:53:49.972Z,10.00
2023-07-23T20:56:55.934Z,10.30
2023-07-23T21:00:01.516Z,10.23
2023-07-23T21:03:07.380Z,9.88
2023-07-23T21:06:13.334Z,9.68
2023-07-23T21:09:19.282Z,9.63
2023-07-23T21:12:24.802Z,10.07
2023-07-23T21:15:32.830Z,9.73
2023-07-23T21:18:38.948Z,10.48
2023-07-23T21:21:45.046Z,8.95
2023-07-23T21:24:51.169Z,10.30
2023-07-23T21:27:56.892Z,10.40
2023-07-23T21:31:02.761Z,10.25
2023-07-23T21:34:08.809Z,9.88
2023-07-23T21:37:14.486Z,10.30
2023-07-23T21:40:20.348Z,10.60
2023-07-23T21:43:26.068Z,9.75
2023-07-23T21:46:32.211Z,9.45
2023-07-23T21:49:38.128Z,11.82
2023-07-23T21:52:44.396Z,11.18
2023-07-23T21:55:50.047Z,10.80
2023-07-23T21:58:56.151Z,10.15
2023-07-23T22:02:02.135Z,10.80
2023-07-23T22:05:08.414Z,10.23
2023-07-23T22:08:15.409Z,10.05
2023-07-23T22:11:21.241Z,11.20
2023-07-23T22:14:28.935Z,10.63
2023-07-23T22:17:34.710Z,10.52
2023-07-23T22:20:40.462Z,10.68
2023-07-23T22:23:45.936Z,9.63
2023-07-23T22:26:51.855Z,10.43
2023-07-23T22:29:57.896Z,10.35
2023-07-23T22:33:03.999Z,11.70
2023-07-23T22:36:09.915Z,10.93
2023-07-23T22:39:15.617Z,10.63
2023-07-23T22:42:21.432Z,10.10
2023-07-23T22:45:27.135Z,10.73
2023-07-23T22:48:34.946Z,10.68
2023-07-23T22:51:40.905Z,10.63
2023-07-23T22:54:46.965Z,11.07
2023-07-23T22:57:52.669Z,9.80
2023-07-23T23:01:03.292Z,11.43
2023-07-23T23:04:09.096Z,11.38
2023-07-23T23:07:15.081Z,12.68
2023-07-23T23:10:21.021Z,10.77
2023-07-23T23:13:26.759Z,11.40
2023-07-23T23:16:32.913Z,10.82
2023-07-23T23:19:38.803Z,11.43
2023-07-23T23:22:44.225Z,10.88
2023-07-23T23:25:51.206Z,11.73
2023-07-23T23:28:56.835Z,12.00
2023-07-23T23:32:02.858Z,11.45
2023-07-23T23:35:09.103Z,11.48
2023-07-23T23:38:15.063Z,11.77
2023-07-23T23:41:20.744Z,11.48
2023-07-23T23:44:26.709Z,11.65
2023-07-23T23:47:32.600Z,11.40
2023-07-23T23:50:39.121Z,13.07
2023-07-23T23:53:44.677Z,11.63
2023-07-23T23:57:01.120Z,11.63
